Time;durP1;ratioP1;P1;durP2;ratioP2;P2;SDS_P1;SDS_P2;PMS_P1;PMS_P2;Temp;Humidity;BMP_temperature;BMP_pressure;BME280_temperature;BME280_humidity;BME280_pressure;Samples;Min_cycle;Max_cycle;Signal;HPM_P1;HPM_P2
2024/03/20 00:02:20;;;;;;;7.30;5.50;;;6.30;32.00;;;;;;5094744;28;20180;-68
2024/03/20 00:04:46;;;;;;;8.07;5.50;;;6.30;31.70;;;;;;5094484;28;20179;-68
2024/03/20 00:07:11;;;;;;;8.00;6.37;;;6.30;32.90;;;;;;5093530;28;20525;-68
2024/03/20 00:09:37;;;;;;;8.60;6.87;;;6.30;32.80;;;;;;5093559;28;20226;-68
2024/03/20 00:12:03;;;;;;;10.33;7.23;;;6.30;31.60;;;;;;5093304;28;20540;-69
2024/03/20 00:14:28;;;;;;;8.17;6.73;;;6.10;33.80;;;;;;5074107;28;20531;-69
2024/03/20 00:16:56;;;;;;;9.17;6.33;;;6.10;33.50;;;;;;5075095;28;20439;-70
2024/03/20 00:19:23;;;;;;;9.20;6.40;;;6.00;33.80;;;;;;5093020;28;20717;-69
2024/03/20 00:21:48;;;;;;;9.20;5.40;;;6.00;35.10;;;;;;5075267;28;20431;-70
2024/03/20 00:24:14;;;;;;;8.63;6.07;;;6.00;35.70;;;;;;5093164;28;20766;-69
2024/03/20 00:26:39;;;;;;;7.37;5.00;;;6.00;33.80;;;;;;5092777;28;20181;-69
2024/03/20 00:29:05;;;;;;;6.00;5.37;;;6.00;34.20;;;;;;5093086;28;20205;-69
2024/03/20 00:31:31;;;;;;;5.30;4.37;;;6.00;33.80;;;;;;5093503;28;20280;-69
2024/03/20 00:33:56;;;;;;;6.30;4.00;;;6.00;34.40;;;;;;5075238;28;20498;-68
2024/03/20 00:36:22;;;;;;;6.00;4.97;;;5.90;34.40;;;;;;5093404;28;20182;-68
2024/03/20 00:38:47;;;;;;;7.40;5.37;;;5.90;34.60;;;;;;5093314;28;20232;-70
2024/03/20 00:41:13;;;;;;;5.63;4.33;;;5.90;32.50;;;;;;5093883;28;20422;-68
2024/03/20 00:43:39;;;;;;;6.53;4.10;;;5.90;33.70;;;;;;5093515;28;20535;-69
2024/03/20 00:46:04;;;;;;;6.43;4.67;;;5.90;33.70;;;;;;5093312;28;20264;-69
2024/03/20 00:48:30;;;;;;;11.07;4.93;;;5.90;33.30;;;;;;5092746;28;20305;-69
2024/03/20 00:50:56;;;;;;;7.63;4.90;;;5.90;33.40;;;;;;5093406;28;20650;-69
2024/03/20 00:53:22;;;;;;;4.90;3.90;;;5.80;32.90;;;;;;5093522;28;20173;-69
2024/03/20 00:55:47;;;;;;;7.87;3.90;;;5.80;34.40;;;;;;5075079;28;20941;-69
2024/03/20 00:58:13;;;;;;;7.07;5.17;;;5.80;33.80;;;;;;5074518;28;20436;-69
2024/03/20 01:00:39;;;;;;;4.83;3.90;;;5.70;36.20;;;;;;5074374;28;20595;-69
2024/03/20 01:03:05;;;;;;;10.20;5.00;;;5.70;35.20;;;;;;5092847;28;20173;-69
2024/03/20 01:05:30;;;;;;;5.97;4.97;;;5.70;36.10;;;;;;5092557;28;20411;-69
2024/03/20 01:07:56;;;;;;;5.83;4.03;;;5.70;35.80;;;;;;5092388;28;20459;-69
2024/03/20 01:10:22;;;;;;;5.93;3.23;;;5.70;36.70;;;;;;5092587;28;20197;-69
2024/03/20 01:12:48;;;;;;;5.30;3.63;;;5.70;37.60;;;;;;5092382;28;20315;-68
2024/03/20 01:15:14;;;;;;;5.77;2.97;;;5.70;36.10;;;;;;5074110;28;20308;-69
2024/03/20 01:17:40;;;;;;;4.70;3.50;;;5.60;36.50;;;;;;5092204;28;20435;-70
2024/03/20 01:20:06;;;;;;;6.60;4.40;;;5.60;36.70;;;;;;5092288;28;20510;-67
2024/03/20 01:22:36;;;;;;;5.60;3.67;;;5.60;37.00;;;;;;5092248;28;20509;-69
2024/03/20 01:25:06;;;;;;;4.70;3.33;;;5.60;36.80;;;;;;5092354;28;20419;-68
2024/03/20 01:27:32;;;;;;;5.40;4.50;;;5.60;36.90;;;;;;5093567;28;20976;-68
2024/03/20 01:29:58;;;;;;;7.00;4.20;;;5.60;35.70;;;;;;5099975;28;20492;-69
2024/03/20 01:32:24;;;;;;;6.37;4.50;;;5.60;36.40;;;;;;5100414;28;20431;-68
2024/03/20 01:34:50;;;;;;;8.73;3.63;;;5.50;36.80;;;;;;5100203;28;20439;-68
2024/03/20 01:37:16;;;;;;;6.17;3.47;;;5.50;37.10;;;;;;5094383;28;20446;-68
2024/03/20 01:39:42;;;;;;;5.70;3.67;;;5.40;37.80;;;;;;5074539;28;20177;-68
2024/03/20 01:42:09;;;;;;;5.17;4.20;;;5.40;37.00;;;;;;5092502;28;20300;-69
2024/03/20 01:44:34;;;;;;;6.90;4.67;;;5.40;38.50;;;;;;5074506;28;20447;-67
2024/03/20 01:47:03;;;;;;;5.17;4.47;;;5.40;37.10;;;;;;5092710;28;20278;-68
2024/03/20 01:49:29;;;;;;;5.80;3.57;;;5.40;36.40;;;;;;5074748;28;20227;-68
2024/03/20 01:51:55;;;;;;;6.43;4.77;;;5.40;36.60;;;;;;5074721;28;20502;-70
2024/03/20 01:54:21;;;;;;;5.03;3.90;;;5.30;37.20;;;;;;5093396;28;20476;-68
2024/03/20 01:56:47;;;;;;;5.77;4.43;;;5.30;38.00;;;;;;5093417;28;20741;-68
2024/03/20 01:59:12;;;;;;;5.13;4.23;;;5.20;38.30;;;;;;5093114;28;20446;-68
2024/03/20 02:01:38;;;;;;;5.37;3.90;;;5.20;38.60;;;;;;5092376;28;20172;-69
2024/03/20 02:04:07;;;;;;;3.90;3.07;;;5.10;38.70;;;;;;5091937;28;20181;-68
2024/03/20 02:06:33;;;;;;;6.37;4.67;;;5.10;39.70;;;;;;5073102;28;20668;-69
2024/03/20 02:09:00;;;;;;;4.73;3.60;;;5.10;38.20;;;;;;5091452;28;20500;-69
2024/03/20 02:11:27;;;;;;;6.87;3.77;;;5.10;38.50;;;;;;5073774;28;20181;-69
2024/03/20 02:13:55;;;;;;;5.50;4.07;;;5.00;39.10;;;;;;5091771;28;20753;-69
2024/03/20 02:16:22;;;;;;;6.80;3.70;;;5.00;39.70;;;;;;5091638;28;20472;-68
2024/03/20 02:18:49;;;;;;;4.90;3.23;;;5.00;39.40;;;;;;5073608;28;20758;-68
2024/03/20 02:21:16;;;;;;;7.50;4.53;;;4.90;40.20;;;;;;5091561;28;20415;-68
2024/03/20 02:23:42;;;;;;;4.90;4.03;;;4.90;40.00;;;;;;5091454;28;20403;-69
2024/03/20 02:26:08;;;;;;;6.07;4.10;;;4.90;40.50;;;;;;5091202;28;20414;-69
2024/03/20 02:28:39;;;;;;;7.77;4.20;;;4.90;41.00;;;;;;5091385;28;20516;-69
2024/03/20 02:31:06;;;;;;;7.40;4.43;;;4.80;42.40;;;;;;5091465;28;20433;-69
2024/03/20 02:33:33;;;;;;;10.17;5.00;;;4.80;43.40;;;;;;5091325;28;20399;-69
2024/03/20 02:35:58;;;;;;;6.17;5.30;;;4.80;43.00;;;;;;5073169;28;20483;-68
2024/03/20 02:38:26;;;;;;;9.30;4.87;;;4.80;43.40;;;;;;5069765;22;20591;-70
2024/03/20 02:40:54;;;;;;;7.50;4.70;;;4.80;44.70;;;;;;5035377;28;20178;-70
2024/03/20 02:43:20;;;;;;;5.83;4.70;;;4.80;45.40;;;;;;5035193;28;20402;-69
2024/03/20 02:45:46;;;;;;;5.77;4.93;;;4.80;45.10;;;;;;5035275;28;20413;-68
2024/03/20 02:48:13;;;;;;;7.47;5.97;;;4.90;45.50;;;;;;5034837;28;20469;-70
2024/03/20 02:50:39;;;;;;;5.30;4.47;;;4.90;46.40;;;;;;5035002;28;20167;-70
2024/03/20 02:53:04;;;;;;;6.63;5.90;;;4.90;47.30;;;;;;5035132;28;20970;-70
2024/03/20 02:55:32;;;;;;;5.97;4.90;;;4.90;46.10;;;;;;5035003;28;20406;-70
2024/03/20 02:57:58;;;;;;;9.00;5.27;;;4.90;45.90;;;;;;5034831;28;20198;-70
2024/03/20 03:00:23;;;;;;;7.70;5.13;;;4.90;45.10;;;;;;5035667;28;20916;-70
2024/03/20 03:02:49;;;;;;;10.90;5.93;;;4.90;45.30;;;;;;5035066;28;20202;-69
2024/03/20 03:05:14;;;;;;;7.37;5.00;;;4.90;44.50;;;;;;5034771;28;20184;-69
2024/03/20 03:07:40;;;;;;;6.10;5.43;;;4.80;43.60;;;;;;5034547;28;20225;-70
2024/03/20 03:10:08;;;;;;;8.73;5.30;;;4.80;42.80;;;;;;5035031;28;20804;-70
2024/03/20 03:12:34;;;;;;;7.30;5.37;;;4.70;42.90;;;;;;5034857;28;20577;-70
2024/03/20 03:14:59;;;;;;;6.00;4.60;;;4.70;42.30;;;;;;5017001;28;20418;-70
2024/03/20 03:17:25;;;;;;;6.27;5.03;;;4.70;41.80;;;;;;5034362;28;20228;-69
2024/03/20 03:19:50;;;;;;;6.40;4.07;;;4.60;42.50;;;;;;5034359;28;20173;-68
2024/03/20 03:22:16;;;;;;;7.60;4.43;;;4.60;41.70;;;;;;5034424;28;20199;-69
2024/03/20 03:24:41;;;;;;;7.80;4.70;;;4.60;41.10;;;;;;5034344;28;20657;-69
2024/03/20 03:27:07;;;;;;;10.23;5.53;;;4.50;41.70;;;;;;5034120;28;20203;-69
2024/03/20 03:29:32;;;;;;;6.40;4.53;;;4.40;41.20;;;;;;5034302;28;20174;-69
2024/03/20 03:31:58;;;;;;;10.80;4.70;;;4.40;42.50;;;;;;5034389;28;20194;-70
2024/03/20 03:34:24;;;;;;;6.70;4.90;;;4.40;42.20;;;;;;5034234;28;20664;-70
2024/03/20 03:36:50;;;;;;;7.70;4.80;;;4.40;42.10;;;;;;5034033;28;20222;-70
2024/03/20 03:39:16;;;;;;;6.87;4.43;;;4.40;41.50;;;;;;5034608;28;20420;-70
2024/03/20 03:41:41;;;;;;;7.23;5.67;;;4.40;40.40;;;;;;5034131;28;20179;-70
2024/03/20 03:44:07;;;;;;;6.43;4.30;;;4.30;39.60;;;;;;5034102;28;20178;-68
2024/03/20 03:46:33;;;;;;;5.83;4.80;;;4.30;40.60;;;;;;5033771;28;20179;-70
2024/03/20 03:48:58;;;;;;;5.60;4.60;;;4.30;40.80;;;;;;5033725;28;20199;-69
2024/03/20 03:51:24;;;;;;;6.70;4.73;;;4.30;40.20;;;;;;5034237;28;20421;-70
2024/03/20 03:53:49;;;;;;;6.87;5.10;;;4.30;41.00;;;;;;5033974;28;20194;-70
2024/03/20 03:56:15;;;;;;;6.40;4.90;;;4.20;40.80;;;;;;5033808;28;20229;-69
2024/03/20 03:58:40;;;;;;;7.63;4.60;;;4.20;41.80;;;;;;5033727;28;20206;-69
2024/03/20 04:01:07;;;;;;;6.50;5.23;;;4.20;41.00;;;;;;5033934;28;20178;-70
2024/03/20 04:03:32;;;;;;;6.38;4.40;;;4.20;41.70;;;;;;5034021;28;20174;-70
2024/03/20 04:06:02;;;;;;;5.23;4.73;;;4.20;42.00;;;;;;5033735;28;20598;-70
2024/03/20 04:08:27;;;;;;;6.03;5.30;;;4.20;42.50;;;;;;5033640;28;20589;-72
2024/03/20 04:10:53;;;;;;;5.90;4.80;;;4.30;41.50;;;;;;5033659;28;20414;-69
2024/03/20 04:13:18;;;;;;;8.27;4.87;;;4.20;42.00;;;;;;5033869;28;20203;-70
2024/03/20 04:15:44;;;;;;;5.63;4.47;;;4.30;41.70;;;;;;5015873;28;20183;-70
2024/03/20 04:18:10;;;;;;;7.10;5.20;;;4.20;41.60;;;;;;5033122;28;20233;-70
2024/03/20 04:20:36;;;;;;;6.53;5.03;;;4.30;40.60;;;;;;5033389;28;20431;-70
2024/03/20 04:23:02;;;;;;;7.93;5.13;;;4.20;41.50;;;;;;5033429;28;20265;-70
2024/03/20 04:25:29;;;;;;;6.50;5.20;;;4.20;42.00;;;;;;5033258;28;20194;-70
2024/03/20 04:27:55;;;;;;;5.50;4.50;;;4.20;42.20;;;;;;5033484;28;20926;-70
2024/03/20 04:30:21;;;;;;;5.30;4.60;;;4.20;42.80;;;;;;5033434;28;20417;-70
2024/03/20 04:32:47;;;;;;;4.73;4.03;;;4.20;42.00;;;;;;5033233;28;20431;-69
2024/03/20 04:35:13;;;;;;;8.37;5.57;;;4.20;42.50;;;;;;5033050;28;20537;-69
2024/03/20 04:37:39;;;;;;;8.17;4.80;;;4.30;42.30;;;;;;5032823;28;20467;-69
2024/03/20 04:40:06;;;;;;;9.80;5.03;;;4.20;41.90;;;;;;5032953;28;20506;-69
2024/03/20 04:42:33;;;;;;;7.90;5.03;;;4.20;42.00;;;;;;5032918;28;20184;-70
2024/03/20 04:44:59;;;;;;;10.67;5.70;;;4.20;41.50;;;;;;5032790;28;20783;-69
2024/03/20 04:47:25;;;;;;;7.00;5.10;;;4.20;49.00;;;;;;5014704;28;20468;-69
2024/03/20 04:49:50;;;;;;;13.70;5.17;;;4.20;53.20;;;;;;5032762;28;20404;-69
2024/03/20 04:52:16;;;;;;;7.63;5.40;;;4.20;54.20;;;;;;5032875;28;20228;-69
2024/03/20 04:54:42;;;;;;;7.10;5.03;;;4.20;55.30;;;;;;5032761;28;20174;-70
2024/03/20 04:57:07;;;;;;;6.50;4.87;;;4.20;58.00;;;;;;5032487;28;20191;-69
2024/03/20 04:59:33;;;;;;;7.37;5.07;;;;;;;;;;5032127;28;20221;-70
2024/03/20 05:01:59;;;;;;;6.93;6.23;;;4.10;57.00;;;;;;5032527;28;20232;-69
2024/03/20 05:04:24;;;;;;;9.03;6.00;;;4.10;52.90;;;;;;5032393;28;20411;-69
2024/03/20 05:06:50;;;;;;;11.60;5.07;;;4.00;53.30;;;;;;5032149;28;20179;-69
2024/03/20 05:09:15;;;;;;;7.30;5.10;;;4.20;53.50;;;;;;5032466;28;20183;-69
2024/03/20 05:11:41;;;;;;;8.97;5.30;;;4.10;54.50;;;;;;5032365;28;20260;-69
2024/03/20 05:14:06;;;;;;;7.10;5.07;;;4.10;54.40;;;;;;5032395;28;20202;-70
2024/03/20 05:16:32;;;;;;;9.27;5.77;;;4.10;53.30;;;;;;5032047;28;20177;-69
2024/03/20 05:18:58;;;;;;;6.50;4.80;;;4.10;53.70;;;;;;5032092;28;20198;-69
2024/03/20 05:21:23;;;;;;;6.77;4.13;;;4.10;55.10;;;;;;5032449;28;20180;-69
2024/03/20 05:23:49;;;;;;;7.73;5.30;;;4.10;54.20;;;;;;5014359;28;20189;-70
2024/03/20 05:26:16;;;;;;;6.13;4.30;;;4.10;54.60;;;;;;5031962;28;20174;-70
2024/03/20 05:28:41;;;;;;;7.05;5.38;;;4.10;55.10;;;;;;5032059;28;20203;-69
2024/03/20 05:31:07;;;;;;;6.60;5.10;;;4.10;56.20;;;;;;5032131;28;20251;-69
2024/03/20 05:33:33;;;;;;;6.77;5.03;;;;;;;;;;5031907;28;20253;-71
2024/03/20 05:35:58;;;;;;;8.47;5.60;;;4.10;53.50;;;;;;5031988;28;20175;-69
2024/03/20 05:38:24;;;;;;;10.30;5.80;;;4.10;56.30;;;;;;5031723;28;20681;-69
2024/03/20 05:40:49;;;;;;;8.97;5.60;;;4.10;57.40;;;;;;5031959;28;20192;-68
2024/03/20 05:43:15;;;;;;;7.00;6.17;;;4.20;63.70;;;;;;5031825;28;20213;-69
2024/03/20 05:45:41;;;;;;;9.83;6.40;;;4.20;65.00;;;;;;5031634;28;20258;-70
2024/03/20 05:48:07;;;;;;;9.03;6.43;;;4.30;60.80;;;;;;5031183;28;20647;-68
2024/03/20 05:50:33;;;;;;;7.13;5.80;;;;;;;;;;5014361;28;20186;-69
2024/03/20 05:52:58;;;;;;;7.80;5.50;;;4.30;42.60;;;;;;5031755;28;20420;-69
2024/03/20 05:55:25;;;;;;;8.20;6.37;;;4.30;41.80;;;;;;5031756;28;20454;-69
2024/03/20 05:57:51;;;;;;;8.40;5.47;;;4.40;41.90;;;;;;5031361;28;20288;-69
2024/03/20 06:00:24;;;;;;;10.53;6.60;;;4.40;41.20;;;;;;5031439;28;20424;-70
2024/03/20 06:02:50;;;;;;;8.57;5.77;;;4.40;41.20;;;;;;5031479;28;20449;-70
2024/03/20 06:05:16;;;;;;;9.67;6.50;;;4.50;41.40;;;;;;5031829;28;20822;-70
2024/03/20 06:07:42;;;;;;;7.50;5.20;;;4.60;40.10;;;;;;5031105;28;20550;-69
2024/03/20 06:10:08;;;;;;;13.00;7.37;;;5.00;44.70;;;;;;5031321;28;20270;-70
2024/03/20 06:12:34;;;;;;;8.83;6.37;;;5.70;50.10;;;;;;5035284;28;20257;-69
2024/03/20 06:15:00;;;;;;;9.47;6.90;;;5.80;46.20;;;;;;5017701;28;20453;-70
2024/03/20 06:17:25;;;;;;;10.30;6.80;;;5.80;39.60;;;;;;5035113;28;20195;-70
2024/03/20 06:19:51;;;;;;;11.10;7.13;;;5.70;34.40;;;;;;5035463;28;20184;-70
2024/03/20 06:22:17;;;;;;;9.83;5.63;;;5.80;34.20;;;;;;5035479;28;20266;-70
2024/03/20 06:24:43;;;;;;;7.73;5.30;;;;;;;;;;5035878;28;20422;-71
2024/03/20 06:27:08;;;;;;;7.40;5.10;;;6.00;32.50;;;;;;5035031;28;20294;-70
2024/03/20 06:29:34;;;;;;;8.57;6.13;;;6.20;30.80;;;;;;5035243;28;21048;-70
2024/03/20 06:32:00;;;;;;;7.70;5.43;;;6.30;29.20;;;;;;5034969;28;20230;-72
2024/03/20 06:34:26;;;;;;;6.03;5.40;;;;;;;;;;5035231;28;20655;-73
2024/03/20 06:36:52;;;;;;;8.70;5.13;;;5.60;36.20;;;;;;5034911;28;20407;-73
2024/03/20 06:39:17;;;;;;;6.70;5.00;;;;;;;;;;5036290;28;20425;-73
2024/03/20 06:41:44;;;;;;;6.07;5.33;;;;;;;;;;5035997;28;20228;-73
2024/03/20 06:44:10;;;;;;;8.47;5.77;;;8.00;27.70;;;;;;5017808;28;20830;-73
2024/03/20 06:46:36;;;;;;;7.70;4.90;;;;;;;;;;5035689;28;20425;-71
2024/03/20 06:49:09;;;;;;;4.93;4.00;;;;;;;;;;5035951;28;20895;-72
2024/03/20 06:51:36;;;;;;;7.73;5.03;;;12.90;17.10;;;;;;5037819;28;20472;-73
2024/03/20 06:54:16;;;;;;;5.73;4.30;;;15.00;1.00;;;;;;5036154;28;20449;-74
2024/03/20 06:56:48;;;;;;;6.50;3.30;;;16.90;1.00;;;;;;5037608;28;20409;-71
2024/03/20 06:59:14;;;;;;;5.60;4.47;;;;;;;;;;5037417;28;20449;-72
2024/03/20 07:01:40;;;;;;;5.00;3.80;;;;;;;;;;5035293;28;20405;-71
2024/03/20 07:04:06;;;;;;;5.27;4.77;;;;;;;;;;5035319;28;20417;-71
2024/03/20 07:06:32;;;;;;;5.73;4.10;;;;;;;;;;5034734;28;20430;-73
2024/03/20 07:08:58;;;;;;;7.60;3.93;;;;;;;;;;5034699;28;20472;-74
2024/03/20 07:11:23;;;;;;;8.10;4.97;;;17.10;1.00;;;;;;5034953;28;20898;-71
2024/03/20 07:13:49;;;;;;;8.50;5.30;;;15.70;1.00;;;;;;5037558;28;20802;-71
2024/03/20 07:16:16;;;;;;;5.60;4.70;;;;;;;;;;5033501;28;20190;-71
2024/03/20 07:18:42;;;;;;;8.63;4.50;;;13.30;1.00;;;;;;5035210;28;20237;-71
2024/03/20 07:21:08;;;;;;;6.60;5.50;;;;;;;;;;5034009;28;20433;-70
2024/03/20 07:23:34;;;;;;;8.47;5.93;;;;;;;;;;5046865;28;20858;-70
2024/03/20 07:26:00;;;;;;;10.83;5.57;;;;;;;;;;5034366;28;20897;-70
2024/03/20 07:28:26;;;;;;;8.83;4.33;;;11.20;13.60;;;;;;5034037;28;20893;-69
2024/03/20 07:30:51;;;;;;;6.70;4.53;;;10.80;1.00;;;;;;5034347;28;20777;-70
2024/03/20 07:33:18;;;;;;;6.23;4.73;;;10.30;1.00;;;;;;5033892;28;20183;-70
2024/03/20 07:35:46;;;;;;;5.90;4.80;;;10.00;1.00;;;;;;5034299;28;20634;-69
2024/03/20 07:38:13;;;;;;;6.43;5.43;;;;;;;;;;5033344;28;20456;-69
2024/03/20 07:40:40;;;;;;;6.90;5.17;;;9.50;1.00;;;;;;5034067;28;20406;-69
2024/03/20 07:43:06;;;;;;;4.80;4.30;;;9.40;2.30;;;;;;5033713;28;20433;-69
2024/03/20 07:45:32;;;;;;;5.10;4.50;;;9.40;3.20;;;;;;5033840;28;20418;-69
2024/03/20 07:47:59;;;;;;;7.17;5.20;;;9.30;4.80;;;;;;5029854;28;20469;-70
2024/03/20 07:50:24;;;;;;;5.57;4.07;;;9.30;5.50;;;;;;5035986;28;20426;-70
2024/03/20 07:52:50;;;;;;;6.43;4.87;;;9.20;5.90;;;;;;5038388;28;20422;-69
2024/03/20 07:55:16;;;;;;;5.70;4.20;;;9.30;7.40;;;;;;5025983;28;20241;-69
2024/03/20 07:57:41;;;;;;;5.77;4.70;;;9.70;7.00;;;;;;5028250;28;20207;-71
2024/03/20 08:00:15;;;;;;;6.83;4.37;;;9.70;5.00;;;;;;5029286;28;20653;-69
2024/03/20 08:02:44;;;;;;;4.80;4.23;;;9.90;5.90;;;;;;5028120;28;20174;-70
2024/03/20 08:05:11;;;;;;;8.70;4.27;;;10.40;4.40;;;;;;5028972;28;20426;-69
2024/03/20 08:07:37;;;;;;;7.80;5.73;;;10.60;2.10;;;;;;5028732;28;20469;-70
2024/03/20 08:10:03;;;;;;;8.40;5.03;;;10.60;2.00;;;;;;5030004;28;20430;-69
2024/03/20 08:12:28;;;;;;;6.47;4.70;;;10.60;2.20;;;;;;5026952;28;20227;-69
2024/03/20 08:14:55;;;;;;;7.43;4.50;;;10.70;1.90;;;;;;5029205;28;20549;-70
2024/03/20 08:17:20;;;;;;;5.90;4.33;;;10.70;2.00;;;;;;5029299;28;20203;-69
2024/03/20 08:19:46;;;;;;;15.27;5.07;;;10.80;1.60;;;;;;5028097;28;20436;-69
2024/03/20 08:22:12;;;;;;;8.43;4.03;;;10.90;1.00;;;;;;5035485;28;20734;-71
2024/03/20 08:24:37;;;;;;;5.27;4.30;;;11.10;1.00;;;;;;5030132;28;20210;-69
2024/03/20 08:27:15;;;;;;;5.23;4.63;;;11.30;1.00;;;;;;5035820;28;20788;-68
2024/03/20 08:29:41;;;;;;;6.60;4.73;;;;;;;;;;5028901;28;20187;-68
2024/03/20 08:32:09;;;;;;;6.00;4.83;;;11.90;1.00;;;;;;5029133;28;20427;-70
2024/03/20 08:34:34;;;;;;;6.03;5.40;;;11.90;1.00;;;;;;5027874;28;20437;-69
2024/03/20 08:37:00;;;;;;;7.10;5.07;;;11.80;1.00;;;;;;5032059;28;20452;-71
2024/03/20 08:39:26;;;;;;;5.43;4.20;;;12.00;1.00;;;;;;5033186;28;20187;-68
2024/03/20 08:41:51;;;;;;;6.53;4.03;;;12.20;1.00;;;;;;5032870;28;20180;-68
2024/03/20 08:44:17;;;;;;;4.80;4.10;;;12.10;1.00;;;;;;5032703;28;20924;-68
2024/03/20 08:46:43;;;;;;;6.23;4.13;;;12.00;1.00;;;;;;5032282;28;20552;-70
2024/03/20 08:49:09;;;;;;;4.00;3.60;;;12.10;1.00;;;;;;5032653;28;20541;-69
2024/03/20 08:51:34;;;;;;;5.67;4.13;;;12.20;1.00;;;;;;5031422;28;20197;-70
2024/03/20 08:54:00;;;;;;;5.17;4.23;;;12.20;1.00;;;;;;5032193;28;20213;-69
2024/03/20 08:56:26;;;;;;;7.57;4.57;;;12.30;1.00;;;;;;5039571;28;20222;-69
2024/03/20 08:58:51;;;;;;;5.57;4.90;;;12.40;1.00;;;;;;5029899;28;20222;-69
2024/03/20 09:01:17;;;;;;;4.83;4.30;;;12.60;1.00;;;;;;5010806;28;20256;-68
2024/03/20 09:03:43;;;;;;;6.20;4.07;;;12.80;1.00;;;;;;5010576;28;20185;-70
2024/03/20 09:06:09;;;;;;;5.70;4.27;;;13.00;1.00;;;;;;5027858;28;20954;-69
2024/03/20 09:08:35;;;;;;;9.50;4.60;;;13.20;1.00;;;;;;5026705;28;20218;-69
2024/03/20 09:11:01;;;;;;;6.10;4.10;;;13.20;1.00;;;;;;5027978;28;20421;-69
2024/03/20 09:13:29;;;;;;;9.03;4.63;;;13.50;1.00;;;;;;5036176;28;20414;-69
2024/03/20 09:15:55;;;;;;;4.17;3.70;;;;;;;;;;5028079;28;20422;-68
2024/03/20 09:18:21;;;;;;;6.70;4.17;;;;;;;;;;5028054;28;20451;-69
2024/03/20 09:20:47;;;;;;;5.60;4.43;;;;;;;;;;5027635;28;20818;-69
2024/03/20 09:23:13;;;;;;;6.27;4.20;;;;;;;;;;5028183;28;20443;-68
2024/03/20 09:25:39;;;;;;;8.07;5.20;;;;;;;;;;5027988;28;20523;-73
2024/03/20 09:28:05;;;;;;;9.03;4.53;;;;;;;;;;5027231;28;20509;-68
2024/03/20 09:30:31;;;;;;;6.70;4.33;;;;;;;;;;5036130;28;20429;-68
2024/03/20 09:32:57;;;;;;;8.30;4.43;;;;;;;;;;5038115;28;20434;-69
2024/03/20 09:35:23;;;;;;;5.80;4.00;;;;;;;;;;5022211;28;20450;-69
2024/03/20 09:37:49;;;;;;;4.40;3.30;;;;;;;;;;5034552;28;20465;-69
2024/03/20 09:40:22;;;;;;;5.17;4.30;;;;;;;;;;5033589;28;20529;-70
2024/03/20 09:42:48;;;;;;;4.93;4.07;;;;;;;;;;5039363;28;20417;-69
2024/03/20 09:45:14;;;;;;;5.20;3.80;;;14.80;1.00;;;;;;5047381;28;20428;-70
2024/03/20 09:47:39;;;;;;;4.50;3.50;;;14.90;1.00;;;;;;5044822;28;20534;-70
2024/03/20 09:50:15;;;;;;;5.37;3.90;;;15.00;1.00;;;;;;5040266;28;20190;-69
2024/03/20 09:52:40;;;;;;;5.20;3.80;;;15.10;1.00;;;;;;5047842;28;20190;-70
2024/03/20 09:55:07;;;;;;;4.73;3.23;;;15.30;1.00;;;;;;5047300;28;20800;-69
2024/03/20 09:57:33;;;;;;;5.80;3.50;;;15.40;1.00;;;;;;5047776;28;20205;-68
2024/03/20 09:59:59;;;;;;;4.30;3.60;;;15.50;1.00;;;;;;5047413;28;20436;-69
2024/03/20 10:02:28;;;;;;;6.73;4.17;;;15.50;1.00;;;;;;5046610;28;20420;-69
2024/03/20 10:04:55;;;;;;;5.50;4.40;;;15.50;1.00;;;;;;5047317;28;20482;-69
2024/03/20 10:07:21;;;;;;;5.50;3.97;;;15.40;1.00;;;;;;5029527;28;20457;-69
2024/03/20 10:09:47;;;;;;;4.80;3.80;;;15.50;1.00;;;;;;5047534;28;20421;-69
2024/03/20 10:12:16;;;;;;;7.20;4.40;;;15.80;1.00;;;;;;5048179;28;20448;-69
2024/03/20 10:14:42;;;;;;;4.57;3.60;;;15.90;1.00;;;;;;5049157;28;20182;-69
2024/03/20 10:17:17;;;;;;;5.03;3.70;;;16.10;1.00;;;;;;5051257;28;21017;-69
2024/03/20 10:19:42;;;;;;;5.73;4.53;;;16.30;1.00;;;;;;5051533;28;20422;-69
2024/03/20 10:22:09;;;;;;;4.33;3.43;;;16.60;1.00;;;;;;5051362;28;20523;-69
2024/03/20 10:24:35;;;;;;;4.70;4.20;;;16.80;1.00;;;;;;5033535;28;20560;-69
2024/03/20 10:27:04;;;;;;;5.17;4.20;;;16.90;1.00;;;;;;5050771;28;20786;-68
2024/03/20 10:29:31;;;;;;;5.60;3.93;;;17.00;1.00;;;;;;5051476;28;20936;-68
2024/03/20 10:31:58;;;;;;;5.60;4.13;;;;;;;;;;5051414;28;20409;-69
2024/03/20 10:34:25;;;;;;;4.47;2.70;;;17.50;9.60;;;;;;5051260;28;20397;-69
2024/03/20 10:36:52;;;;;;;7.87;3.87;;;17.70;5.90;;;;;;5050726;28;20413;-69
2024/03/20 10:39:23;;;;;;;6.67;4.27;;;17.70;4.60;;;;;;5047214;28;20521;-68
2024/03/20 10:41:53;;;;;;;4.40;3.37;;;17.90;4.40;;;;;;5040699;28;20440;-69
2024/03/20 10:44:20;;;;;;;3.83;3.37;;;18.00;2.90;;;;;;5042682;28;20409;-69
2024/03/20 10:46:53;;;;;;;4.83;3.83;;;18.10;1.70;;;;;;5050616;28;20401;-69
2024/03/20 10:49:20;;;;;;;3.50;2.73;;;;;;;;;;5051035;28;20475;-69
2024/03/20 10:51:48;;;;;;;5.37;2.87;;;18.00;1.00;;;;;;5051064;28;20401;-69
2024/03/20 10:54:14;;;;;;;3.67;2.70;;;18.20;1.00;;;;;;5050873;28;20406;-69
2024/03/20 10:56:47;;;;;;;4.90;3.60;;;18.10;1.00;;;;;;5050748;28;20401;-69
2024/03/20 10:59:23;;;;;;;4.70;3.03;;;18.30;1.00;;;;;;5053133;28;20496;-68
2024/03/20 11:02:13;;;;;;;4.20;3.03;;;18.40;1.00;;;;;;5035641;28;20440;-69
2024/03/20 11:04:41;;;;;;;6.20;2.77;;;18.50;1.00;;;;;;5036235;28;20428;-69
2024/03/20 11:07:26;;;;;;;6.70;3.07;;;18.50;1.00;;;;;;5038043;28;20438;-69
2024/03/20 11:09:52;;;;;;;6.40;3.50;;;18.50;1.00;;;;;;5040741;28;20440;-69
2024/03/20 11:12:27;;;;;;;4.43;2.90;;;18.60;1.00;;;;;;5034683;28;20417;-69
2024/03/20 11:14:53;;;;;;;3.83;2.73;;;18.90;1.00;;;;;;5034401;28;20201;-68
2024/03/20 11:17:21;;;;;;;7.40;4.10;;;19.10;1.00;;;;;;5034479;28;20481;-68
2024/03/20 11:19:47;;;;;;;4.13;3.43;;;19.00;1.00;;;;;;5031986;28;20761;-68
2024/03/20 11:22:22;;;;;;;5.60;4.30;;;19.10;1.00;;;;;;5034924;28;20945;-68
2024/03/20 11:24:50;;;;;;;4.57;3.17;;;19.30;1.00;;;;;;5034045;28;20771;-69
2024/03/20 11:27:15;;;;;;;5.33;3.27;;;19.40;1.00;;;;;;5033840;28;20480;-69
2024/03/20 11:29:41;;;;;;;4.37;3.30;;;19.40;1.00;;;;;;5034310;28;20414;-68
2024/03/20 11:32:13;;;;;;;3.33;2.97;;;19.40;1.00;;;;;;5034168;28;20761;-71
2024/03/20 11:34:40;;;;;;;4.07;2.97;;;19.60;1.00;;;;;;5034087;28;20562;-71
2024/03/20 11:37:25;;;;;;;4.00;3.00;;;19.70;1.00;;;;;;5033905;28;20438;-70
2024/03/20 11:39:52;;;;;;;3.60;2.60;;;19.70;1.00;;;;;;5035576;28;20917;-70
2024/03/20 11:42:18;;;;;;;4.60;3.10;;;19.70;1.00;;;;;;5040326;28;20457;-68
2024/03/20 11:44:44;;;;;;;3.27;2.27;;;20.00;1.00;;;;;;5033825;28;20504;-68
2024/03/20 11:47:13;;;;;;;3.47;2.80;;;20.20;1.00;;;;;;5033561;28;20203;-67
2024/03/20 11:49:44;;;;;;;2.90;2.60;;;20.40;1.00;;;;;;5036427;28;20434;-67
2024/03/20 11:52:17;;;;;;;2.97;2.70;;;20.40;1.00;;;;;;5041726;28;20512;-68
2024/03/20 11:54:46;;;;;;;5.07;2.90;;;20.40;1.00;;;;;;5040751;28;20445;-67
2024/03/20 11:57:13;;;;;;;2.93;2.57;;;20.50;1.00;;;;;;5041752;28;20471;-68
2024/03/20 11:59:44;;;;;;;2.60;2.40;;;20.40;1.00;;;;;;5037139;28;20527;-67
2024/03/20 12:02:11;;;;;;;2.40;2.20;;;20.40;1.00;;;;;;5043323;28;20480;-67
2024/03/20 12:04:37;;;;;;;2.60;2.40;;;20.50;1.00;;;;;;5037479;28;20521;-67
2024/03/20 12:07:02;;;;;;;2.63;2.40;;;20.60;1.00;;;;;;5041215;28;20589;-67
2024/03/20 12:09:28;;;;;;;2.87;2.37;;;20.60;1.00;;;;;;5037052;28;20273;-68
2024/03/20 12:12:01;;;;;;;2.80;2.40;;;21.10;1.00;;;;;;5041100;28;20183;-68
2024/03/20 12:14:27;;;;;;;2.90;2.60;;;21.20;1.00;;;;;;5037821;28;20466;-67
2024/03/20 12:16:53;;;;;;;2.70;2.10;;;21.20;1.00;;;;;;5040749;28;20464;-68
2024/03/20 12:19:19;;;;;;;2.73;2.47;;;21.40;1.00;;;;;;5035698;28;20864;-67
2024/03/20 12:21:45;;;;;;;2.20;2.00;;;21.30;1.00;;;;;;5040925;28;20438;-68
2024/03/20 12:24:12;;;;;;;3.53;3.20;;;21.30;1.00;;;;;;5040957;28;20557;-67
2024/03/20 12:26:37;;;;;;;2.80;2.43;;;21.40;1.00;;;;;;5041230;28;20524;-68
2024/03/20 12:29:03;;;;;;;2.87;2.60;;;21.80;1.00;;;;;;5039925;28;20579;-68
2024/03/20 12:31:29;;;;;;;2.80;2.30;;;21.80;1.00;;;;;;5044704;28;20200;-67
2024/03/20 12:33:55;;;;;;;5.83;2.70;;;22.10;1.00;;;;;;5044689;28;20484;-68
2024/03/20 12:36:21;;;;;;;3.00;2.60;;;21.90;1.00;;;;;;5044274;28;20438;-68
2024/03/20 12:38:49;;;;;;;2.77;2.57;;;22.10;1.00;;;;;;5041026;28;20469;-68
2024/03/20 12:41:21;;;;;;;2.50;2.30;;;21.90;1.00;;;;;;5052998;28;20417;-67
2024/03/20 12:43:48;;;;;;;3.87;2.90;;;21.80;1.00;;;;;;5049053;28;20447;-68
2024/03/20 12:46:13;;;;;;;3.03;2.50;;;21.60;1.00;;;;;;5032768;28;20414;-68
2024/03/20 12:48:39;;;;;;;3.00;2.70;;;21.60;1.00;;;;;;5029628;28;20826;-68
2024/03/20 12:51:08;;;;;;;2.80;2.60;;;21.60;1.00;;;;;;5034783;28;20543;-69
2024/03/20 12:53:34;;;;;;;3.40;2.63;;;21.60;1.00;;;;;;5039401;28;20752;-68
2024/03/20 12:56:00;;;;;;;4.30;3.27;;;21.50;1.00;;;;;;5044030;28;20918;-68
2024/03/20 12:58:25;;;;;;;5.57;3.00;;;21.40;1.00;;;;;;5016974;28;20574;-68
2024/03/20 13:00:51;;;;;;;3.87;2.80;;;21.30;1.00;;;;;;5031934;28;20846;-68
2024/03/20 13:03:18;;;;;;;2.77;2.57;;;;;;;;;;5035591;28;20226;-72
2024/03/20 13:05:47;;;;;;;2.97;2.77;;;21.60;1.00;;;;;;5043930;28;20182;-67